sensor_id;sensor_type;location;lat;lon;timestamp;pressure;altitude;pressure_sealevel;temperature
45565;BMP280;31280;40.408;17.282;2022-11-15T00:01:11;101776.91;;;16.07
45565;BMP280;31280;40.408;17.282;2022-11-15T00:03:39;101776.22;;;16.03
45565;BMP280;31280;40.408;17.282;2022-11-15T00:06:05;101775.53;;;15.99
45565;BMP280;31280;40.408;17.282;2022-11-15T00:08:32;101771.72;;;15.97
45565;BMP280;31280;40.408;17.282;2022-11-15T00:11:00;101779.53;;;15.95
45565;BMP280;31280;40.408;17.282;2022-11-15T00:13:26;101770.25;;;15.92
45565;BMP280;31280;40.408;17.282;2022-11-15T00:15:52;101770.06;;;15.84
45565;BMP280;31280;40.408;17.282;2022-11-15T00:18:18;101769.72;;;15.82
45565;BMP280;31280;40.408;17.282;2022-11-15T00:20:44;101778.22;;;15.84
45565;BMP280;31280;40.408;17.282;2022-11-15T00:23:10;101773.25;;;15.79
45565;BMP280;31280;40.408;17.282;2022-11-15T00:25:36;101759.69;;;15.79
45565;BMP280;31280;40.408;17.282;2022-11-15T00:28:02;101775.97;;;15.79
45565;BMP280;31280;40.408;17.282;2022-11-15T00:30:28;101765.19;;;15.75
45565;BMP280;31280;40.408;17.282;2022-11-15T00:32:54;101767.91;;;15.75
45565;BMP280;31280;40.408;17.282;2022-11-15T00:35:21;101772.19;;;15.76
45565;BMP280;31280;40.408;17.282;2022-11-15T00:37:46;101778.78;;;15.75
45565;BMP280;31280;40.408;17.282;2022-11-15T00:40:14;101773.47;;;15.72
45565;BMP280;31280;40.408;17.282;2022-11-15T00:42:40;101766.88;;;15.69
45565;BMP280;31280;40.408;17.282;2022-11-15T00:45:07;101766.13;;;15.69
45565;BMP280;31280;40.408;17.282;2022-11-15T00:47:33;101764.94;;;15.70
45565;BMP280;31280;40.408;17.282;2022-11-15T00:49:58;101761.44;;;15.69
45565;BMP280;31280;40.408;17.282;2022-11-15T00:52:24;101752.25;;;15.63
45565;BMP280;31280;40.408;17.282;2022-11-15T00:54:50;101768.44;;;15.70
45565;BMP280;31280;40.408;17.282;2022-11-15T00:57:16;101758.81;;;15.66
45565;BMP280;31280;40.408;17.282;2022-11-15T00:59:42;101765.34;;;15.68
45565;BMP280;31280;40.408;17.282;2022-11-15T01:02:07;101765.03;;;15.66
45565;BMP280;31280;40.408;17.282;2022-11-15T01:04:33;101744.97;;;15.60
45565;BMP280;31280;40.408;17.282;2022-11-15T01:06:59;101760.00;;;15.65
45565;BMP280;31280;40.408;17.282;2022-11-15T01:09:24;101760.84;;;15.62
45565;BMP280;31280;40.408;17.282;2022-11-15T01:11:50;101754.78;;;15.55
45565;BMP280;31280;40.408;17.282;2022-11-15T01:14:15;101757.13;;;15.53
45565;BMP280;31280;40.408;17.282;2022-11-15T01:16:41;101747.97;;;15.47
45565;BMP280;31280;40.408;17.282;2022-11-15T01:19:07;101746.47;;;15.46
45565;BMP280;31280;40.408;17.282;2022-11-15T01:21:32;101748.06;;;15.43
45565;BMP280;31280;40.408;17.282;2022-11-15T01:23:58;101743.88;;;15.39
45565;BMP280;31280;40.408;17.282;2022-11-15T01:26:24;101746.19;;;15.40
45565;BMP280;31280;40.408;17.282;2022-11-15T01:28:50;101745.06;;;15.38
45565;BMP280;31280;40.408;17.282;2022-11-15T01:31:19;101751.19;;;15.42
45565;BMP280;31280;40.408;17.282;2022-11-15T01:33:46;101758.47;;;15.45
45565;BMP280;31280;40.408;17.282;2022-11-15T01:36:15;101745.81;;;15.38
45565;BMP280;31280;40.408;17.282;2022-11-15T01:38:41;101754.16;;;15.47
45565;BMP280;31280;40.408;17.282;2022-11-15T01:41:15;101758.75;;;15.50
45565;BMP280;31280;40.408;17.282;2022-11-15T01:43:41;101752.56;;;15.50
45565;BMP280;31280;40.408;17.282;2022-11-15T01:48:53;101752.50;;;15.53
45565;BMP280;31280;40.408;17.282;2022-11-15T01:51:21;101757.13;;;15.53
45565;BMP280;31280;40.408;17.282;2022-11-15T01:53:51;101744.03;;;15.51
45565;BMP280;31280;40.408;17.282;2022-11-15T01:56:24;101749.50;;;15.48
45565;BMP280;31280;40.408;17.282;2022-11-15T01:58:52;101754.31;;;15.40
45565;BMP280;31280;40.408;17.282;2022-11-15T02:01:19;101729.75;;;15.28
45565;BMP280;31280;40.408;17.282;2022-11-15T02:04:28;101750.84;;;15.40
45565;BMP280;31280;40.408;17.282;2022-11-15T02:06:54;101746.59;;;15.39
45565;BMP280;31280;40.408;17.282;2022-11-15T02:09:20;101756.56;;;15.45
45565;BMP280;31280;40.408;17.282;2022-11-15T02:11:46;101744.50;;;15.46
45565;BMP280;31280;40.408;17.282;2022-11-15T02:14:14;101753.34;;;15.50
45565;BMP280;31280;40.408;17.282;2022-11-15T02:20:08;101754.94;;;15.48
45565;BMP280;31280;40.408;17.282;2022-11-15T02:25:09;101744.16;;;15.44
45565;BMP280;31280;40.408;17.282;2022-11-15T02:28:08;101744.16;;;15.44
45565;BMP280;31280;40.408;17.282;2022-11-15T02:30:53;101744.56;;;15.43
45565;BMP280;31280;40.408;17.282;2022-11-15T02:33:36;101746.09;;;15.44
45565;BMP280;31280;40.408;17.282;2022-11-15T02:36:06;101749.97;;;15.43
45565;BMP280;31280;40.408;17.282;2022-11-15T02:38:53;101746.50;;;15.42
45565;BMP280;31280;40.408;17.282;2022-11-15T02:41:27;101745.00;;;15.41
45565;BMP280;31280;40.408;17.282;2022-11-15T02:44:17;101747.72;;;15.41
45565;BMP280;31280;40.408;17.282;2022-11-15T02:49:39;101749.66;;;15.41
45565;BMP280;31280;40.408;17.282;2022-11-15T02:52:06;101721.09;;;15.33
45565;BMP280;31280;40.408;17.282;2022-11-15T02:54:33;101739.59;;;15.41
45565;BMP280;31280;40.408;17.282;2022-11-15T02:57:03;101733.41;;;15.37
45565;BMP280;31280;40.408;17.282;2022-11-15T02:59:57;101723.34;;;15.38
45565;BMP280;31280;40.408;17.282;2022-11-15T03:05:41;101722.16;;;15.39
45565;BMP280;31280;40.408;17.282;2022-11-15T03:08:53;101724.09;;;15.38
45565;BMP280;31280;40.408;17.282;2022-11-15T03:11:22;101727.97;;;15.37
45565;BMP280;31280;40.408;17.282;2022-11-15T03:14:08;101726.06;;;15.38
45565;BMP280;31280;40.408;17.282;2022-11-15T03:16:48;101701.91;;;15.24
45565;BMP280;31280;40.408;17.282;2022-11-15T03:19:51;101718.75;;;15.35
45565;BMP280;31280;40.408;17.282;2022-11-15T03:22:20;101721.88;;;15.33
45565;BMP280;31280;40.408;17.282;2022-11-15T03:24:52;101718.97;;;15.25
45565;BMP280;31280;40.408;17.282;2022-11-15T03:27:21;101730.13;;;15.30
45565;BMP280;31280;40.408;17.282;2022-11-15T03:29:54;101740.50;;;15.31
45565;BMP280;31280;40.408;17.282;2022-11-15T03:32:25;101732.72;;;15.33
45565;BMP280;31280;40.408;17.282;2022-11-15T03:35:17;101735.09;;;15.31
45565;BMP280;31280;40.408;17.282;2022-11-15T03:37:45;101732.81;;;15.30
45565;BMP280;31280;40.408;17.282;2022-11-15T03:40:22;101727.03;;;15.28
45565;BMP280;31280;40.408;17.282;2022-11-15T03:45:50;101725.16;;;15.25
45565;BMP280;31280;40.408;17.282;2022-11-15T03:48:28;101725.56;;;15.24
45565;BMP280;31280;40.408;17.282;2022-11-15T03:50:56;101727.53;;;15.23
45565;BMP280;31280;40.408;17.282;2022-11-15T03:53:22;101701.38;;;15.13
45565;BMP280;31280;40.408;17.282;2022-11-15T03:55:48;101717.81;;;15.22
45565;BMP280;31280;40.408;17.282;2022-11-15T03:58:13;101710.47;;;15.23
45565;BMP280;31280;40.408;17.282;2022-11-15T04:00:39;101718.19;;;15.24
45565;BMP280;31280;40.408;17.282;2022-11-15T04:03:05;101727.53;;;15.23
45565;BMP280;31280;40.408;17.282;2022-11-15T04:05:31;101719.03;;;15.21
45565;BMP280;31280;40.408;17.282;2022-11-15T04:07:56;101721.34;;;15.23
45565;BMP280;31280;40.408;17.282;2022-11-15T04:10:22;101713.03;;;15.10
45565;BMP280;31280;40.408;17.282;2022-11-15T04:12:48;101721.72;;;15.21
45565;BMP280;31280;40.408;17.282;2022-11-15T04:15:16;101723.00;;;15.17
45565;BMP280;31280;40.408;17.282;2022-11-15T04:17:53;101718.41;;;15.14
45565;BMP280;31280;40.408;17.282;2022-11-15T04:23:10;101702.69;;;15.05
45565;BMP280;31280;40.408;17.282;2022-11-15T04:25:56;101723.75;;;15.17
45565;BMP280;31280;40.408;17.282;2022-11-15T04:28:23;101723.00;;;15.17
45565;BMP280;31280;40.408;17.282;2022-11-15T04:30:52;101703.72;;;15.11
45565;BMP280;31280;40.408;17.282;2022-11-15T04:33:17;101708.47;;;15.07
45565;BMP280;31280;40.408;17.282;2022-11-15T04:35:44;101701.84;;;15.08
45565;BMP280;31280;40.408;17.282;2022-11-15T04:38:30;101718.44;;;15.10
45565;BMP280;31280;40.408;17.282;2022-11-15T04:40:55;101722.44;;;15.06
45565;BMP280;31280;40.408;17.282;2022-11-15T04:43:21;101729.59;;;14.97
45565;BMP280;31280;40.408;17.282;2022-11-15T04:45:47;101724.28;;;14.90
45565;BMP280;31280;40.408;17.282;2022-11-15T04:48:13;101725.31;;;14.76
45565;BMP280;31280;40.408;17.282;2022-11-15T04:50:38;101723.03;;;14.75
45565;BMP280;31280;40.408;17.282;2022-11-15T04:53:04;101726.97;;;14.70
45565;BMP280;31280;40.408;17.282;2022-11-15T04:55:30;101721.19;;;14.69
45565;BMP280;31280;40.408;17.282;2022-11-15T04:58:00;101714.78;;;14.59
45565;BMP280;31280;40.408;17.282;2022-11-15T05:00:28;101720.84;;;14.67
45565;BMP280;31280;40.408;17.282;2022-11-15T05:02:55;101717.50;;;14.59
45565;BMP280;31280;40.408;17.282;2022-11-15T05:05:39;101707.16;;;14.54
45565;BMP280;31280;40.408;17.282;2022-11-15T05:08:05;101712.41;;;14.61
45565;BMP280;31280;40.408;17.282;2022-11-15T05:10:31;101732.81;;;14.69
45565;BMP280;31280;40.408;17.282;2022-11-15T05:12:56;101731.28;;;14.68
45565;BMP280;31280;40.408;17.282;2022-11-15T05:15:23;101732.44;;;14.67
45565;BMP280;31280;40.408;17.282;2022-11-15T05:17:49;101737.06;;;14.70
45565;BMP280;31280;40.408;17.282;2022-11-15T05:20:15;101732.41;;;14.70
45565;BMP280;31280;40.408;17.282;2022-11-15T05:22:41;101729.25;;;14.72
45565;BMP280;31280;40.408;17.282;2022-11-15T05:25:07;101731.97;;;14.72
45565;BMP280;31280;40.408;17.282;2022-11-15T05:27:33;101730.03;;;14.72
45565;BMP280;31280;40.408;17.282;2022-11-15T05:29:59;101718.69;;;14.58
45565;BMP280;31280;40.408;17.282;2022-11-15T05:32:25;101725.50;;;14.66
45565;BMP280;31280;40.408;17.282;2022-11-15T05:34:51;101733.91;;;14.75
45565;BMP280;31280;40.408;17.282;2022-11-15T05:37:17;101743.59;;;14.72
45565;BMP280;31280;40.408;17.282;2022-11-15T05:39:43;101750.44;;;14.80
45565;BMP280;31280;40.408;17.282;2022-11-15T05:42:15;101748.50;;;14.81
45565;BMP280;31280;40.408;17.282;2022-11-15T05:44:45;101751.22;;;14.81
45565;BMP280;31280;40.408;17.282;2022-11-15T05:47:24;101751.22;;;14.81
45565;BMP280;31280;40.408;17.282;2022-11-15T05:49:51;101745.91;;;14.74
45565;BMP280;31280;40.408;17.282;2022-11-15T05:52:21;101761.59;;;14.86
45565;BMP280;31280;40.408;17.282;2022-11-15T05:54:47;101757.72;;;14.87
45565;BMP280;31280;40.408;17.282;2022-11-15T05:57:14;101769.72;;;14.86
45565;BMP280;31280;40.408;17.282;2022-11-15T05:59:40;101760.16;;;14.78
45565;BMP280;31280;40.408;17.282;2022-11-15T06:02:09;101782.44;;;14.89
45565;BMP280;31280;40.408;17.282;2022-11-15T06:04:35;101775.50;;;14.88
45565;BMP280;31280;40.408;17.282;2022-11-15T06:07:01;101778.56;;;14.90
45565;BMP280;31280;40.408;17.282;2022-11-15T06:09:27;101783.97;;;14.90
45565;BMP280;31280;40.408;17.282;2022-11-15T06:11:52;101783.97;;;14.90
45565;BMP280;31280;40.408;17.282;2022-11-15T06:14:18;101785.91;;;14.93
45565;BMP280;31280;40.408;17.282;2022-11-15T06:16:44;101783.50;;;14.95
45565;BMP280;31280;40.408;17.282;2022-11-15T06:19:10;101782.69;;;14.98
45565;BMP280;31280;40.408;17.282;2022-11-15T06:21:36;101790.75;;;15.01
45565;BMP280;31280;40.408;17.282;2022-11-15T06:24:01;101786.47;;;15.03
45565;BMP280;31280;40.408;17.282;2022-11-15T06:26:27;101772.19;;;14.99
45565;BMP280;31280;40.408;17.282;2022-11-15T06:28:53;101783.59;;;15.10
45565;BMP280;31280;40.408;17.282;2022-11-15T06:31:19;101788.91;;;15.17
45565;BMP280;31280;40.408;17.282;2022-11-15T06:33:44;101792.00;;;15.19
45565;BMP280;31280;40.408;17.282;2022-11-15T06:36:12;101789.28;;;15.19
45565;BMP280;31280;40.408;17.282;2022-11-15T06:38:43;101792.97;;;15.28
45565;BMP280;31280;40.408;17.282;2022-11-15T06:41:10;101795.59;;;15.32
45565;BMP280;31280;40.408;17.282;2022-11-15T06:43:36;101792.38;;;15.37
45565;BMP280;31280;40.408;17.282;2022-11-15T06:46:03;101796.16;;;15.43
45565;BMP280;31280;40.408;17.282;2022-11-15T06:48:31;101787.53;;;15.48
45565;BMP280;31280;40.408;17.282;2022-11-15T06:50:59;101783.38;;;15.43
45565;BMP280;31280;40.408;17.282;2022-11-15T06:53:25;101789.72;;;15.53
45565;BMP280;31280;40.408;17.282;2022-11-15T06:55:58;101801.50;;;15.65
45565;BMP280;31280;40.408;17.282;2022-11-15T06:58:24;101808.78;;;15.72
45565;BMP280;31280;40.408;17.282;2022-11-15T07:00:49;101795.44;;;15.77
45565;BMP280;31280;40.408;17.282;2022-11-15T07:03:15;101802.28;;;15.85
45565;BMP280;31280;40.408;17.282;2022-11-15T07:05:41;101799.38;;;15.92
45565;BMP280;31280;40.408;17.282;2022-11-15T07:08:06;101804.25;;;16.00
45565;BMP280;31280;40.408;17.282;2022-11-15T07:10:32;101789.88;;;16.00
45565;BMP280;31280;40.408;17.282;2022-11-15T07:12:58;101799.25;;;16.14
45565;BMP280;31280;40.408;17.282;2022-11-15T07:15:25;101799.94;;;16.18
45565;BMP280;31280;40.408;17.282;2022-11-15T07:17:51;101810.56;;;16.29
45565;BMP280;31280;40.408;17.282;2022-11-15T07:20:18;101791.97;;;16.27
45565;BMP280;31280;40.408;17.282;2022-11-15T07:22:43;101813.38;;;16.41
45565;BMP280;31280;40.408;17.282;2022-11-15T07:25:12;101807.78;;;16.48
45565;BMP280;31280;40.408;17.282;2022-11-15T07:27:38;101814.56;;;16.56
45565;BMP280;31280;40.408;17.282;2022-11-15T07:30:04;101812.88;;;16.62
45565;BMP280;31280;40.408;17.282;2022-11-15T07:32:30;101808.19;;;16.62
45565;BMP280;31280;40.408;17.282;2022-11-15T07:34:56;101811.00;;;16.74
45565;BMP280;31280;40.408;17.282;2022-11-15T07:37:22;101796.38;;;16.69
45565;BMP280;31280;40.408;17.282;2022-11-15T07:39:48;101813.44;;;16.85
45565;BMP280;31280;40.408;17.282;2022-11-15T07:42:13;101816.06;;;16.88
45565;BMP280;31280;40.408;17.282;2022-11-15T07:44:57;101811.97;;;16.96
45565;BMP280;31280;40.408;17.282;2022-11-15T07:47:23;101805.69;;;16.99
45565;BMP280;31280;40.408;17.282;2022-11-15T07:49:49;101813.41;;;17.00
45565;BMP280;31280;40.408;17.282;2022-11-15T07:52:15;101797.91;;;16.98
45565;BMP280;31280;40.408;17.282;2022-11-15T07:54:43;101795.63;;;16.96
45565;BMP280;31280;40.408;17.282;2022-11-15T07:57:09;101815.94;;;17.07
45565;BMP280;31280;40.408;17.282;2022-11-15T07:59:35;101815.88;;;17.11
45565;BMP280;31280;40.408;17.282;2022-11-15T08:02:01;101797.84;;;17.01
45565;BMP280;31280;40.408;17.282;2022-11-15T08:04:27;101815.31;;;17.16
45565;BMP280;31280;40.408;17.282;2022-11-15T08:06:52;101810.44;;;17.23
45565;BMP280;31280;40.408;17.282;2022-11-15T08:09:18;101816.53;;;17.27
45565;BMP280;31280;40.408;17.282;2022-11-15T08:11:43;101797.22;;;17.22
45565;BMP280;31280;40.408;17.282;2022-11-15T08:14:09;101808.72;;;17.29
45565;BMP280;31280;40.408;17.282;2022-11-15T08:16:35;101813.22;;;17.35
45565;BMP280;31280;40.408;17.282;2022-11-15T08:19:01;101815.50;;;17.37
45565;BMP280;31280;40.408;17.282;2022-11-15T08:21:27;101813.53;;;17.37
45565;BMP280;31280;40.408;17.282;2022-11-15T08:23:53;101814.63;;;17.40
45565;BMP280;31280;40.408;17.282;2022-11-15T08:26:18;101803.06;;;17.36
45565;BMP280;31280;40.408;17.282;2022-11-15T08:28:44;101823.03;;;17.45
45565;BMP280;31280;40.408;17.282;2022-11-15T08:31:15;101821.50;;;17.44
45565;BMP280;31280;40.408;17.282;2022-11-15T08:33:42;101802.75;;;17.34
45565;BMP280;31280;40.408;17.282;2022-11-15T08:36:12;101816.03;;;17.44
45565;BMP280;31280;40.408;17.282;2022-11-15T08:38:38;101820.66;;;17.47
45565;BMP280;31280;40.408;17.282;2022-11-15T08:41:04;101814.88;;;17.45
45565;BMP280;31280;40.408;17.282;2022-11-15T08:43:31;101818.25;;;17.49
45565;BMP280;31280;40.408;17.282;2022-11-15T08:45:57;101824.81;;;17.52
45565;BMP280;31280;40.408;17.282;2022-11-15T08:48:23;101816.53;;;17.55
45565;BMP280;31280;40.408;17.282;2022-11-15T08:50:53;101813.28;;;17.60
45565;BMP280;31280;40.408;17.282;2022-11-15T08:53:19;101811.97;;;17.64
45565;BMP280;31280;40.408;17.282;2022-11-15T08:55:45;101780.97;;;17.46
45565;BMP280;31280;40.408;17.282;2022-11-15T08:58:11;101809.13;;;17.68
45565;BMP280;31280;40.408;17.282;2022-11-15T09:00:36;101823.56;;;17.81
45565;BMP280;31280;40.408;17.282;2022-11-15T09:03:06;101821.81;;;17.86
45565;BMP280;31280;40.408;17.282;2022-11-15T09:05:32;101821.59;;;17.93
45565;BMP280;31280;40.408;17.282;2022-11-15T09:08:00;101824.63;;;17.95
45565;BMP280;31280;40.408;17.282;2022-11-15T09:10:26;101810.34;;;17.91
45565;BMP280;31280;40.408;17.282;2022-11-15T09:12:52;101818.53;;;18.04
45565;BMP280;31280;40.408;17.282;2022-11-15T09:15:18;101808.84;;;18.03
45565;BMP280;31280;40.408;17.282;2022-11-15T09:17:45;101806.09;;;18.03
45565;BMP280;31280;40.408;17.282;2022-11-15T09:20:11;101818.09;;;18.05
45565;BMP280;31280;40.408;17.282;2022-11-15T09:22:37;101813.31;;;18.09
45565;BMP280;31280;40.408;17.282;2022-11-15T09:25:04;101803.16;;;18.10
45565;BMP280;31280;40.408;17.282;2022-11-15T09:27:30;101805.47;;;18.11
45565;BMP280;31280;40.408;17.282;2022-11-15T09:29:56;101796.50;;;18.11
45565;BMP280;31280;40.408;17.282;2022-11-15T09:32:22;101794.94;;;18.22
45565;BMP280;31280;40.408;17.282;2022-11-15T09:34:50;101790.72;;;18.21
45565;BMP280;31280;40.408;17.282;2022-11-15T09:37:16;101796.56;;;18.32
45565;BMP280;31280;40.408;17.282;2022-11-15T09:39:42;101794.03;;;18.37
45565;BMP280;31280;40.408;17.282;2022-11-15T09:45:12;101783.34;;;18.42
45565;BMP280;31280;40.408;17.282;2022-11-15T09:53:01;101769.53;;;18.58
45565;BMP280;31280;40.408;17.282;2022-11-15T09:56:14;101765.06;;;18.64
45565;BMP280;31280;40.408;17.282;2022-11-15T10:01:17;101761.22;;;18.74
45565;BMP280;31280;40.408;17.282;2022-11-15T10:03:44;101756.94;;;18.73
45565;BMP280;31280;40.408;17.282;2022-11-15T10:06:24;101755.47;;;18.81
45565;BMP280;31280;40.408;17.282;2022-11-15T10:09:27;101762.34;;;18.85
45565;BMP280;31280;40.408;17.282;2022-11-15T10:11:54;101754.28;;;18.82
45565;BMP280;31280;40.408;17.282;2022-11-15T10:14:22;101755.53;;;18.90
45565;BMP280;31280;40.408;17.282;2022-11-15T10:22:50;101739.50;;;19.22
45565;BMP280;31280;40.408;17.282;2022-11-15T10:25:24;101743.63;;;19.26
45565;BMP280;31280;40.408;17.282;2022-11-15T10:27:59;101741.09;;;19.31
45565;BMP280;31280;40.408;17.282;2022-11-15T10:30:41;101732.31;;;19.36
45565;BMP280;31280;40.408;17.282;2022-11-15T10:35:46;101728.53;;;19.43
45565;BMP280;31280;40.408;17.282;2022-11-15T10:38:12;101725.16;;;19.39
45565;BMP280;31280;40.408;17.282;2022-11-15T10:40:40;101707.53;;;19.31
45565;BMP280;31280;40.408;17.282;2022-11-15T10:45:36;101715.91;;;19.36
45565;BMP280;31280;40.408;17.282;2022-11-15T10:50:42;101700.97;;;19.58
45565;BMP280;31280;40.408;17.282;2022-11-15T10:53:33;101702.38;;;19.63
45565;BMP280;31280;40.408;17.282;2022-11-15T10:56:06;101700.34;;;19.63
45565;BMP280;31280;40.408;17.282;2022-11-15T10:58:44;101692.44;;;19.56
45565;BMP280;31280;40.408;17.282;2022-11-15T11:01:18;101689.88;;;19.62
45565;BMP280;31280;40.408;17.282;2022-11-15T11:04:07;101690.03;;;19.67
45565;BMP280;31280;40.408;17.282;2022-11-15T11:06:56;101684.59;;;19.76
45565;BMP280;31280;40.408;17.282;2022-11-15T11:09:28;101678.84;;;19.83
45565;BMP280;31280;40.408;17.282;2022-11-15T11:11:55;101675.63;;;19.84
45565;BMP280;31280;40.408;17.282;2022-11-15T11:14:25;101679.00;;;19.88
45565;BMP280;31280;40.408;17.282;2022-11-15T11:16:58;101669.41;;;19.84
45565;BMP280;31280;40.408;17.282;2022-11-15T11:28:26;101656.69;;;20.07
45565;BMP280;31280;40.408;17.282;2022-11-15T11:36:31;101641.63;;;19.94
45565;BMP280;31280;40.408;17.282;2022-11-15T11:41:58;101638.56;;;19.92
45565;BMP280;31280;40.408;17.282;2022-11-15T11:44:41;101637.69;;;19.95
45565;BMP280;31280;40.408;17.282;2022-11-15T11:47:15;101628.84;;;20.00
45565;BMP280;31280;40.408;17.282;2022-11-15T12:00:51;101618.19;;;20.29
45565;BMP280;31280;40.408;17.282;2022-11-15T12:06:30;101609.22;;;20.28
45565;BMP280;31280;40.408;17.282;2022-11-15T12:09:14;101611.06;;;20.31
45565;BMP280;31280;40.408;17.282;2022-11-15T12:11:49;101607.06;;;20.32
45565;BMP280;31280;40.408;17.282;2022-11-15T12:14:25;101601.91;;;20.34
45565;BMP280;31280;40.408;17.282;2022-11-15T12:16:52;101586.44;;;20.31
45565;BMP280;31280;40.408;17.282;2022-11-15T12:19:18;101580.31;;;20.36
45565;BMP280;31280;40.408;17.282;2022-11-15T12:21:53;101589.59;;;20.38
45565;BMP280;31280;40.408;17.282;2022-11-15T12:24:34;101580.31;;;20.45
45565;BMP280;31280;40.408;17.282;2022-11-15T12:27:17;101579.66;;;20.50
45565;BMP280;31280;40.408;17.282;2022-11-15T12:30:14;101571.75;;;20.52
45565;BMP280;31280;40.408;17.282;2022-11-15T12:32:40;101583.59;;;20.66
45565;BMP280;31280;40.408;17.282;2022-11-15T12:37:53;101574.41;;;20.78
45565;BMP280;31280;40.408;17.282;2022-11-15T12:40:31;101585.94;;;20.91
45565;BMP280;31280;40.408;17.282;2022-11-15T12:45:40;101567.88;;;21.08
45565;BMP280;31280;40.408;17.282;2022-11-15T12:58:57;101566.28;;;21.15
45565;BMP280;31280;40.408;17.282;2022-11-15T13:06:52;101576.34;;;21.18
45565;BMP280;31280;40.408;17.282;2022-11-15T13:11:59;101575.91;;;21.11
45565;BMP280;31280;40.408;17.282;2022-11-15T13:17:35;101556.88;;;21.16
45565;BMP280;31280;40.408;17.282;2022-11-15T13:22:50;101555.28;;;21.47
45565;BMP280;31280;40.408;17.282;2022-11-15T13:28:17;101552.69;;;21.81
45565;BMP280;31280;40.408;17.282;2022-11-15T13:30:51;101543.50;;;21.70
45565;BMP280;31280;40.408;17.282;2022-11-15T13:33:22;101542.16;;;21.66
45565;BMP280;31280;40.408;17.282;2022-11-15T13:35:51;101534.31;;;21.59
45565;BMP280;31280;40.408;17.282;2022-11-15T13:38:26;101543.56;;;21.61
45565;BMP280;31280;40.408;17.282;2022-11-15T13:40:53;101536.34;;;21.49
45565;BMP280;31280;40.408;17.282;2022-11-15T13:46:15;101532.94;;;21.40
45565;BMP280;31280;40.408;17.282;2022-11-15T13:48:43;101543.91;;;21.40
45565;BMP280;31280;40.408;17.282;2022-11-15T13:51:23;101538.94;;;21.30
45565;BMP280;31280;40.408;17.282;2022-11-15T13:54:47;101545.69;;;21.20
45565;BMP280;31280;40.408;17.282;2022-11-15T13:56:52;101539.00;;;20.98
45565;BMP280;31280;40.408;17.282;2022-11-15T14:01:56;101514.91;;;20.47
45565;BMP280;31280;40.408;17.282;2022-11-15T14:04:23;101529.78;;;20.55
45565;BMP280;31280;40.408;17.282;2022-11-15T14:06:54;101539.81;;;20.49
45565;BMP280;31280;40.408;17.282;2022-11-15T14:11:56;101539.25;;;20.36
45565;BMP280;31280;40.408;17.282;2022-11-15T14:14:27;101539.75;;;20.26
45565;BMP280;31280;40.408;17.282;2022-11-15T14:16:58;101538.09;;;20.19
45565;BMP280;31280;40.408;17.282;2022-11-15T14:22:10;101527.31;;;20.07
45565;BMP280;31280;40.408;17.282;2022-11-15T14:24:36;101540.25;;;20.06
45565;BMP280;31280;40.408;17.282;2022-11-15T14:27:25;101531.41;;;20.11
45565;BMP280;31280;40.408;17.282;2022-11-15T14:29:51;101530.81;;;20.07
45565;BMP280;31280;40.408;17.282;2022-11-15T14:32:20;101526.84;;;20.08
45565;BMP280;31280;40.408;17.282;2022-11-15T14:34:47;101520.78;;;20.05
45565;BMP280;31280;40.408;17.282;2022-11-15T14:37:22;101503.66;;;19.86
45565;BMP280;31280;40.408;17.282;2022-11-15T14:39:49;101515.47;;;19.83
45565;BMP280;31280;40.408;17.282;2022-11-15T14:42:15;101518.38;;;19.80
45565;BMP280;31280;40.408;17.282;2022-11-15T14:44:41;101514.56;;;19.77
45565;BMP280;31280;40.408;17.282;2022-11-15T14:47:07;101516.44;;;19.63
45565;BMP280;31280;40.408;17.282;2022-11-15T14:49:32;101519.59;;;19.61
45565;BMP280;31280;40.408;17.282;2022-11-15T14:51:58;101512.31;;;19.58
45565;BMP280;31280;40.408;17.282;2022-11-15T14:54:24;101512.16;;;19.53
45565;BMP280;31280;40.408;17.282;2022-11-15T14:56:50;101503.50;;;19.46
45565;BMP280;31280;40.408;17.282;2022-11-15T14:59:16;101502.56;;;19.40
45565;BMP280;31280;40.408;17.282;2022-11-15T15:01:42;101499.06;;;19.30
45565;BMP280;31280;40.408;17.282;2022-11-15T15:04:10;101491.63;;;19.22
45565;BMP280;31280;40.408;17.282;2022-11-15T15:06:36;101502.25;;;19.20
45565;BMP280;31280;40.408;17.282;2022-11-15T15:09:02;101503.00;;;19.12
45565;BMP280;31280;40.408;17.282;2022-11-15T15:11:30;101493.25;;;19.02
45565;BMP280;31280;40.408;17.282;2022-11-15T15:13:57;101497.03;;;18.96
45565;BMP280;31280;40.408;17.282;2022-11-15T15:16:26;101481.09;;;18.85
45565;BMP280;31280;40.408;17.282;2022-11-15T15:18:52;101486.06;;;18.87
45565;BMP280;31280;40.408;17.282;2022-11-15T15:21:25;101490.00;;;18.77
45565;BMP280;31280;40.408;17.282;2022-11-15T15:23:53;101486.28;;;18.62
45565;BMP280;31280;40.408;17.282;2022-11-15T15:26:22;101487.94;;;18.60
45565;BMP280;31280;40.408;17.282;2022-11-15T15:28:49;101494.16;;;18.51
45565;BMP280;31280;40.408;17.282;2022-11-15T15:31:17;101493.19;;;18.45
45565;BMP280;31280;40.408;17.282;2022-11-15T15:33:43;101470.97;;;18.26
45565;BMP280;31280;40.408;17.282;2022-11-15T15:36:14;101489.16;;;18.29
45565;BMP280;31280;40.408;17.282;2022-11-15T15:38:42;101485.50;;;18.23
45565;BMP280;31280;40.408;17.282;2022-11-15T15:41:11;101479.53;;;18.15
45565;BMP280;31280;40.408;17.282;2022-11-15T15:43:38;101494.69;;;18.16
45565;BMP280;31280;40.408;17.282;2022-11-15T15:46:08;101482.34;;;18.03
45565;BMP280;31280;40.408;17.282;2022-11-15T15:48:35;101491.59;;;18.06
45565;BMP280;31280;40.408;17.282;2022-11-15T15:51:02;101484.41;;;17.99
45565;BMP280;31280;40.408;17.282;2022-11-15T15:53:28;101484.09;;;17.97
45565;BMP280;31280;40.408;17.282;2022-11-15T15:55:54;101478.81;;;17.94
45565;BMP280;31280;40.408;17.282;2022-11-15T15:58:20;101469.00;;;17.84